sensor_id;sensor_type;location;lat;lon;timestamp;pressure;altitude;pressure_sealevel;temperature;humidity
26436;BME280;15351;52.408;16.826;2023-05-28T00:00:14;101548.30;;;12.20;58.57
26436;BME280;15351;52.408;16.826;2023-05-28T00:03:50;101546.72;;;12.20;58.81
26436;BME280;15351;52.408;16.826;2023-05-28T00:06:26;101544.96;;;12.19;58.58
26436;BME280;15351;52.408;16.826;2023-05-28T00:09:19;101537.61;;;12.17;58.59
26436;BME280;15351;52.408;16.826;2023-05-28T00:11:51;101533.84;;;12.14;58.50
26436;BME280;15351;52.408;16.826;2023-05-28T00:15:03;101534.84;;;12.10;58.66
26436;BME280;15351;52.408;16.826;2023-05-28T00:17:38;101533.73;;;12.07;58.56
26436;BME280;15351;52.408;16.826;2023-05-28T00:23:41;101531.96;;;11.96;58.67
26436;BME280;15351;52.408;16.826;2023-05-28T00:26:35;101529.83;;;11.91;58.78
26436;BME280;15351;52.408;16.826;2023-05-28T00:29:40;101533.65;;;11.89;58.87
26436;BME280;15351;52.408;16.826;2023-05-28T00:32:17;101528.61;;;11.85;59.43
26436;BME280;15351;52.408;16.826;2023-05-28T00:41:22;101534.65;;;11.78;59.84
26436;BME280;15351;52.408;16.826;2023-05-28T00:44:06;101531.59;;;11.76;59.65
26436;BME280;15351;52.408;16.826;2023-05-28T00:48:19;101532.02;;;11.75;59.85
26436;BME280;15351;52.408;16.826;2023-05-28T00:50:55;101530.72;;;11.76;59.91
26436;BME280;15351;52.408;16.826;2023-05-28T00:53:26;101531.41;;;11.72;59.88
26436;BME280;15351;52.408;16.826;2023-05-28T00:59:18;101528.99;;;11.67;60.05
26436;BME280;15351;52.408;16.826;2023-05-28T01:01:45;101529.40;;;11.59;59.95
26436;BME280;15351;52.408;16.826;2023-05-28T01:04:17;101523.63;;;11.53;60.01
26436;BME280;15351;52.408;16.826;2023-05-28T01:07:00;101521.75;;;11.50;60.37
26436;BME280;15351;52.408;16.826;2023-05-28T01:10:10;101514.80;;;11.47;60.18
26436;BME280;15351;52.408;16.826;2023-05-28T01:13:10;101513.60;;;11.45;60.48
26436;BME280;15351;52.408;16.826;2023-05-28T01:16:00;101502.47;;;11.43;60.36
26436;BME280;15351;52.408;16.826;2023-05-28T01:18:27;101503.13;;;11.42;60.25
26436;BME280;15351;52.408;16.826;2023-05-28T01:21:19;101497.11;;;11.39;60.33
26436;BME280;15351;52.408;16.826;2023-05-28T01:23:49;101496.36;;;11.38;60.62
26436;BME280;15351;52.408;16.826;2023-05-28T01:26:21;101495.33;;;11.36;60.78
26436;BME280;15351;52.408;16.826;2023-05-28T01:32:16;101499.64;;;11.27;60.75
26436;BME280;15351;52.408;16.826;2023-05-28T01:34:57;101500.23;;;11.23;60.73
26436;BME280;15351;52.408;16.826;2023-05-28T01:37:25;101500.36;;;11.18;61.01
26436;BME280;15351;52.408;16.826;2023-05-28T01:40:26;101499.15;;;11.16;61.33
26436;BME280;15351;52.408;16.826;2023-05-28T01:43:24;101500.92;;;11.17;61.32
26436;BME280;15351;52.408;16.826;2023-05-28T01:46:10;101500.35;;;11.17;61.18
26436;BME280;15351;52.408;16.826;2023-05-28T01:48:47;101504.48;;;11.15;61.24
26436;BME280;15351;52.408;16.826;2023-05-28T01:51:43;101506.89;;;11.13;61.29
26436;BME280;15351;52.408;16.826;2023-05-28T01:54:40;101506.90;;;11.11;61.12
26436;BME280;15351;52.408;16.826;2023-05-28T01:57:11;101509.45;;;11.10;61.16
26436;BME280;15351;52.408;16.826;2023-05-28T01:59:39;101505.13;;;11.09;61.17
26436;BME280;15351;52.408;16.826;2023-05-28T02:02:10;101502.30;;;11.06;61.24
26436;BME280;15351;52.408;16.826;2023-05-28T02:04:37;101501.52;;;11.02;61.19
26436;BME280;15351;52.408;16.826;2023-05-28T02:07:37;101503.12;;;10.99;61.16
26436;BME280;15351;52.408;16.826;2023-05-28T02:10:24;101501.33;;;10.95;61.09
26436;BME280;15351;52.408;16.826;2023-05-28T02:12:57;101497.96;;;10.94;61.27
26436;BME280;15351;52.408;16.826;2023-05-28T02:15:26;101488.19;;;10.90;61.35
26436;BME280;15351;52.408;16.826;2023-05-28T02:17:54;101490.06;;;10.87;61.36
26436;BME280;15351;52.408;16.826;2023-05-28T02:21:17;101489.70;;;10.82;61.65
26436;BME280;15351;52.408;16.826;2023-05-28T02:24:14;101481.95;;;10.76;61.80
26436;BME280;15351;52.408;16.826;2023-05-28T02:26:52;101479.87;;;10.74;61.91
26436;BME280;15351;52.408;16.826;2023-05-28T02:33:02;101484.92;;;10.69;61.95
26436;BME280;15351;52.408;16.826;2023-05-28T02:35:59;101488.41;;;10.67;62.12
26436;BME280;15351;52.408;16.826;2023-05-28T02:41:41;101488.46;;;10.66;62.25
26436;BME280;15351;52.408;16.826;2023-05-28T02:44:11;101491.02;;;10.66;62.26
26436;BME280;15351;52.408;16.826;2023-05-28T02:46:38;101491.75;;;10.64;62.10
26436;BME280;15351;52.408;16.826;2023-05-28T02:52:11;101493.73;;;10.62;61.98
26436;BME280;15351;52.408;16.826;2023-05-28T02:55:03;101494.09;;;10.59;62.20
26436;BME280;15351;52.408;16.826;2023-05-28T02:58:12;101497.54;;;10.60;62.22
26436;BME280;15351;52.408;16.826;2023-05-28T03:00:59;101496.30;;;10.58;62.02
26436;BME280;15351;52.408;16.826;2023-05-28T03:03:27;101498.56;;;10.55;62.24
26436;BME280;15351;52.408;16.826;2023-05-28T03:06:04;101491.08;;;10.48;62.26
26436;BME280;15351;52.408;16.826;2023-05-28T03:09:14;101503.78;;;10.48;62.22
26436;BME280;15351;52.408;16.826;2023-05-28T03:11:46;101504.92;;;10.47;62.58
26436;BME280;15351;52.408;16.826;2023-05-28T03:14:17;101501.61;;;10.50;62.87
26436;BME280;15351;52.408;16.826;2023-05-28T03:16:46;101496.91;;;10.52;62.75
26436;BME280;15351;52.408;16.826;2023-05-28T03:19:30;101497.58;;;10.54;62.79
26436;BME280;15351;52.408;16.826;2023-05-28T03:22:10;101496.58;;;10.55;62.72
26436;BME280;15351;52.408;16.826;2023-05-28T03:24:46;101494.16;;;10.56;62.97
26436;BME280;15351;52.408;16.826;2023-05-28T03:28:23;101491.48;;;10.61;63.31
26436;BME280;15351;52.408;16.826;2023-05-28T03:31:07;101491.73;;;10.66;63.35
26436;BME280;15351;52.408;16.826;2023-05-28T03:33:37;101491.22;;;10.69;63.20
26436;BME280;15351;52.408;16.826;2023-05-28T03:36:06;101488.95;;;10.72;63.23
26436;BME280;15351;52.408;16.826;2023-05-28T03:38:40;101488.11;;;10.75;63.24
26436;BME280;15351;52.408;16.826;2023-05-28T03:44:21;101485.29;;;10.86;63.46
26436;BME280;15351;52.408;16.826;2023-05-28T03:47:24;101480.23;;;10.92;63.57
26436;BME280;15351;52.408;16.826;2023-05-28T03:50:48;101485.91;;;10.96;63.50
26436;BME280;15351;52.408;16.826;2023-05-28T03:53:15;101486.64;;;11.01;63.64
26436;BME280;15351;52.408;16.826;2023-05-28T03:55:43;101480.77;;;11.08;63.87
26436;BME280;15351;52.408;16.826;2023-05-28T03:58:19;101481.05;;;11.15;63.84
26436;BME280;15351;52.408;16.826;2023-05-28T04:00:46;101486.45;;;11.22;63.81
26436;BME280;15351;52.408;16.826;2023-05-28T04:03:15;101484.23;;;11.26;63.67
26436;BME280;15351;52.408;16.826;2023-05-28T04:05:51;101484.09;;;11.29;63.83
26436;BME280;15351;52.408;16.826;2023-05-28T04:08:30;101483.58;;;11.36;64.01
26436;BME280;15351;52.408;16.826;2023-05-28T04:11:15;101481.64;;;11.44;64.16
26436;BME280;15351;52.408;16.826;2023-05-28T04:13:51;101478.19;;;11.51;64.12
26436;BME280;15351;52.408;16.826;2023-05-28T04:16:26;101482.42;;;11.59;64.14
26436;BME280;15351;52.408;16.826;2023-05-28T04:19:20;101481.28;;;11.65;64.11
26436;BME280;15351;52.408;16.826;2023-05-28T04:22:14;101485.06;;;11.73;64.21
26436;BME280;15351;52.408;16.826;2023-05-28T04:25:31;101487.25;;;11.86;64.12
26436;BME280;15351;52.408;16.826;2023-05-28T04:28:32;101488.11;;;11.96;64.07
26436;BME280;15351;52.408;16.826;2023-05-28T04:31:41;101490.85;;;12.06;64.07
26436;BME280;15351;52.408;16.826;2023-05-28T04:38:35;101485.85;;;12.29;63.51
26436;BME280;15351;52.408;16.826;2023-05-28T04:42:17;101479.99;;;12.40;62.95
26436;BME280;15351;52.408;16.826;2023-05-28T04:48:05;101473.36;;;12.63;61.18
26436;BME280;15351;52.408;16.826;2023-05-28T04:54:20;101469.77;;;12.85;59.79
26436;BME280;15351;52.408;16.826;2023-05-28T04:56:56;101467.48;;;12.96;59.59
26436;BME280;15351;52.408;16.826;2023-05-28T05:03:25;101469.48;;;13.16;58.81
26436;BME280;15351;52.408;16.826;2023-05-28T05:06:28;101465.82;;;13.26;58.33
26436;BME280;15351;52.408;16.826;2023-05-28T05:08:57;101469.54;;;13.38;57.42
26436;BME280;15351;52.408;16.826;2023-05-28T05:11:28;101463.79;;;13.47;56.77
26436;BME280;15351;52.408;16.826;2023-05-28T05:17:53;101469.73;;;13.72;55.03
26436;BME280;15351;52.408;16.826;2023-05-28T05:20:26;101469.48;;;13.84;54.50
26436;BME280;15351;52.408;16.826;2023-05-28T05:22:54;101466.89;;;13.94;53.81
26436;BME280;15351;52.408;16.826;2023-05-28T05:25:22;101465.55;;;14.02;52.93
26436;BME280;15351;52.408;16.826;2023-05-28T05:27:50;101463.73;;;14.11;52.55
26436;BME280;15351;52.408;16.826;2023-05-28T05:30:16;101461.37;;;14.21;52.28
26436;BME280;15351;52.408;16.826;2023-05-28T05:32:44;101458.38;;;14.28;52.03
26436;BME280;15351;52.408;16.826;2023-05-28T05:35:14;101459.13;;;14.35;51.54
26436;BME280;15351;52.408;16.826;2023-05-28T05:38:15;101459.30;;;14.44;51.36
26436;BME280;15351;52.408;16.826;2023-05-28T05:41:24;101450.61;;;14.56;51.14
26436;BME280;15351;52.408;16.826;2023-05-28T05:44:07;101455.71;;;14.67;50.98
26436;BME280;15351;52.408;16.826;2023-05-28T05:46:54;101456.52;;;14.77;50.72
26436;BME280;15351;52.408;16.826;2023-05-28T05:49:42;101459.36;;;14.83;50.37
26436;BME280;15351;52.408;16.826;2023-05-28T05:52:34;101455.27;;;14.90;50.19
26436;BME280;15351;52.408;16.826;2023-05-28T05:55:09;101457.30;;;14.99;50.15
26436;BME280;15351;52.408;16.826;2023-05-28T05:57:36;101452.88;;;15.07;50.04
26436;BME280;15351;52.408;16.826;2023-05-28T06:00:09;101455.33;;;15.18;49.57
26436;BME280;15351;52.408;16.826;2023-05-28T06:02:48;101454.20;;;15.28;48.77
26436;BME280;15351;52.408;16.826;2023-05-28T06:06:01;101460.16;;;15.38;48.38
26436;BME280;15351;52.408;16.826;2023-05-28T06:09:10;101458.73;;;15.45;48.05
26436;BME280;15351;52.408;16.826;2023-05-28T06:11:55;101461.01;;;15.51;47.59
26436;BME280;15351;52.408;16.826;2023-05-28T06:14:24;101459.10;;;15.59;47.55
26436;BME280;15351;52.408;16.826;2023-05-28T06:16:55;101454.04;;;15.66;47.32
26436;BME280;15351;52.408;16.826;2023-05-28T06:19:28;101459.06;;;15.78;47.17
26436;BME280;15351;52.408;16.826;2023-05-28T06:22:44;101450.96;;;15.84;47.14
26436;BME280;15351;52.408;16.826;2023-05-28T06:24:51;101457.29;;;15.94;47.23
26436;BME280;15351;52.408;16.826;2023-05-28T06:27:19;101457.85;;;16.04;47.12
26436;BME280;15351;52.408;16.826;2023-05-28T06:30:04;101453.23;;;16.15;46.75
26436;BME280;15351;52.408;16.826;2023-05-28T06:32:43;101451.85;;;16.23;46.64
26436;BME280;15351;52.408;16.826;2023-05-28T06:35:23;101449.19;;;16.33;45.80
26436;BME280;15351;52.408;16.826;2023-05-28T06:38:29;101452.66;;;16.41;45.77
26436;BME280;15351;52.408;16.826;2023-05-28T06:41:27;101450.97;;;16.51;45.40
26436;BME280;15351;52.408;16.826;2023-05-28T06:44:07;101448.16;;;16.60;45.42
26436;BME280;15351;52.408;16.826;2023-05-28T06:47:34;101441.94;;;16.74;45.93
26436;BME280;15351;52.408;16.826;2023-05-28T06:50:16;101450.34;;;16.93;46.33
26436;BME280;15351;52.408;16.826;2023-05-28T06:52:46;101447.56;;;17.07;46.09
26436;BME280;15351;52.408;16.826;2023-05-28T06:55:59;101448.54;;;17.22;45.35
26436;BME280;15351;52.408;16.826;2023-05-28T06:58:39;101448.63;;;17.34;44.30
26436;BME280;15351;52.408;16.826;2023-05-28T07:01:25;101446.40;;;17.41;44.06
26436;BME280;15351;52.408;16.826;2023-05-28T07:04:08;101449.40;;;17.59;44.09
26436;BME280;15351;52.408;16.826;2023-05-28T07:06:59;101451.44;;;17.74;43.12
26436;BME280;15351;52.408;16.826;2023-05-28T07:09:39;101449.57;;;17.89;42.87
26436;BME280;15351;52.408;16.826;2023-05-28T07:12:35;101450.64;;;18.09;43.53
26436;BME280;15351;52.408;16.826;2023-05-28T07:15:22;101445.60;;;18.26;43.52
26436;BME280;15351;52.408;16.826;2023-05-28T07:17:49;101443.48;;;18.46;43.04
26436;BME280;15351;52.408;16.826;2023-05-28T07:20:37;101436.70;;;18.60;42.51
26436;BME280;15351;52.408;16.826;2023-05-28T07:23:17;101439.63;;;18.72;41.57
26436;BME280;15351;52.408;16.826;2023-05-28T07:25:55;101438.66;;;18.83;41.70
26436;BME280;15351;52.408;16.826;2023-05-28T07:28:32;101439.43;;;18.94;40.33
26436;BME280;15351;52.408;16.826;2023-05-28T07:31:09;101437.61;;;19.00;39.76
26436;BME280;15351;52.408;16.826;2023-05-28T07:34:02;101440.64;;;19.10;39.60
26436;BME280;15351;52.408;16.826;2023-05-28T07:37:07;101442.09;;;19.21;39.03
26436;BME280;15351;52.408;16.826;2023-05-28T07:39:50;101443.40;;;19.34;39.19
26436;BME280;15351;52.408;16.826;2023-05-28T07:42:46;101442.42;;;19.50;38.82
26436;BME280;15351;52.408;16.826;2023-05-28T07:49:41;101449.13;;;19.91;40.06
26436;BME280;15351;52.408;16.826;2023-05-28T07:59:25;101436.93;;;20.35;37.71
26436;BME280;15351;52.408;16.826;2023-05-28T08:02:34;101435.27;;;20.45;37.89
26436;BME280;15351;52.408;16.826;2023-05-28T08:05:08;101434.23;;;20.66;39.42
26436;BME280;15351;52.408;16.826;2023-05-28T08:07:42;101439.70;;;20.78;38.44
26436;BME280;15351;52.408;16.826;2023-05-28T08:14:54;101436.89;;;21.10;36.76
26436;BME280;15351;52.408;16.826;2023-05-28T08:17:32;101433.21;;;21.22;36.31
26436;BME280;15351;52.408;16.826;2023-05-28T08:21:07;101428.13;;;21.43;37.60
26436;BME280;15351;52.408;16.826;2023-05-28T08:24:01;101415.53;;;21.54;35.71
26436;BME280;15351;52.408;16.826;2023-05-28T08:27:11;101409.81;;;21.51;35.20
26436;BME280;15351;52.408;16.826;2023-05-28T08:31:08;101410.52;;;21.70;36.57
26436;BME280;15351;52.408;16.826;2023-05-28T08:37:41;101395.95;;;22.11;36.17
26436;BME280;15351;52.408;16.826;2023-05-28T08:40:38;101391.77;;;22.28;36.21
26436;BME280;15351;52.408;16.826;2023-05-28T08:43:08;101395.65;;;22.36;34.87
26436;BME280;15351;52.408;16.826;2023-05-28T08:45:36;101394.00;;;22.41;34.18
26436;BME280;15351;52.408;16.826;2023-05-28T08:48:11;101391.05;;;22.38;33.39
26436;BME280;15351;52.408;16.826;2023-05-28T08:51:13;101383.02;;;22.45;34.69
26436;BME280;15351;52.408;16.826;2023-05-28T08:53:47;101381.99;;;22.61;34.75
26436;BME280;15351;52.408;16.826;2023-05-28T08:56:20;101381.70;;;22.71;34.20
26436;BME280;15351;52.408;16.826;2023-05-28T09:01:39;101379.00;;;22.80;32.86
26436;BME280;15351;52.408;16.826;2023-05-28T09:04:19;101371.55;;;22.88;33.45
26436;BME280;15351;52.408;16.826;2023-05-28T09:06:49;101370.69;;;23.01;34.13
26436;BME280;15351;52.408;16.826;2023-05-28T09:09:40;101368.84;;;23.15;34.51
26436;BME280;15351;52.408;16.826;2023-05-28T09:12:29;101366.17;;;23.28;34.31
26436;BME280;15351;52.408;16.826;2023-05-28T09:15:01;101375.61;;;23.45;34.64
26436;BME280;15351;52.408;16.826;2023-05-28T09:17:47;101377.24;;;23.56;33.84
26436;BME280;15351;52.408;16.826;2023-05-28T09:20:39;101374.58;;;23.66;33.53
26436;BME280;15351;52.408;16.826;2023-05-28T09:23:16;101371.31;;;23.57;32.00
26436;BME280;15351;52.408;16.826;2023-05-28T09:26:43;101370.59;;;23.65;33.59
26436;BME280;15351;52.408;16.826;2023-05-28T09:29:34;101365.70;;;23.78;32.12
26436;BME280;15351;52.408;16.826;2023-05-28T09:32:18;101367.21;;;23.69;31.11
26436;BME280;15351;52.408;16.826;2023-05-28T09:34:51;101366.98;;;23.68;31.35
26436;BME280;15351;52.408;16.826;2023-05-28T09:37:20;101367.16;;;23.74;31.43
26436;BME280;15351;52.408;16.826;2023-05-28T09:40:03;101358.14;;;23.79;30.74
26436;BME280;15351;52.408;16.826;2023-05-28T09:42:55;101363.05;;;23.72;30.19
26436;BME280;15351;52.408;16.826;2023-05-28T09:45:26;101359.31;;;23.60;30.08
26436;BME280;15351;52.408;16.826;2023-05-28T09:47:55;101353.30;;;23.58;30.58
26436;BME280;15351;52.408;16.826;2023-05-28T09:50:21;101352.08;;;23.74;32.27
26436;BME280;15351;52.408;16.826;2023-05-28T09:53:18;101348.29;;;23.91;32.97
26436;BME280;15351;52.408;16.826;2023-05-28T10:00:00;101338.64;;;24.24;32.11
26436;BME280;15351;52.408;16.826;2023-05-28T10:09:12;101341.42;;;24.52;32.30
26436;BME280;15351;52.408;16.826;2023-05-28T10:11:59;101336.06;;;24.56;31.36
26436;BME280;15351;52.408;16.826;2023-05-28T10:15:36;101341.40;;;24.68;32.52
26436;BME280;15351;52.408;16.826;2023-05-28T10:18:14;101336.46;;;24.85;33.08
26436;BME280;15351;52.408;16.826;2023-05-28T10:20:43;101330.81;;;24.95;32.90
26436;BME280;15351;52.408;16.826;2023-05-28T10:23:10;101334.52;;;24.98;31.42
26436;BME280;15351;52.408;16.826;2023-05-28T10:25:48;101336.36;;;24.78;29.90
26436;BME280;15351;52.408;16.826;2023-05-28T10:28:23;101334.62;;;24.60;29.67
26436;BME280;15351;52.408;16.826;2023-05-28T10:31:08;101327.18;;;24.54;29.86
26436;BME280;15351;52.408;16.826;2023-05-28T10:33:58;101325.34;;;24.57;30.77
26436;BME280;15351;52.408;16.826;2023-05-28T10:36:26;101323.77;;;24.59;29.76
26436;BME280;15351;52.408;16.826;2023-05-28T10:39:03;101322.89;;;24.54;29.89
26436;BME280;15351;52.408;16.826;2023-05-28T10:41:39;101320.17;;;24.56;30.22
26436;BME280;15351;52.408;16.826;2023-05-28T10:44:06;101316.98;;;24.67;30.10
26436;BME280;15351;52.408;16.826;2023-05-28T10:46:55;101318.98;;;24.69;30.59
26436;BME280;15351;52.408;16.826;2023-05-28T10:52:31;101312.56;;;24.83;30.12
26436;BME280;15351;52.408;16.826;2023-05-28T10:55:02;101312.18;;;24.81;30.46
26436;BME280;15351;52.408;16.826;2023-05-28T10:57:44;101308.30;;;24.80;29.65
26436;BME280;15351;52.408;16.826;2023-05-28T11:00:11;101308.47;;;24.77;30.07
26436;BME280;15351;52.408;16.826;2023-05-28T11:02:52;101310.16;;;24.82;29.97
26436;BME280;15351;52.408;16.826;2023-05-28T11:05:37;101303.81;;;24.93;31.56
26436;BME280;15351;52.408;16.826;2023-05-28T11:08:07;101303.92;;;25.06;31.39
26436;BME280;15351;52.408;16.826;2023-05-28T11:10:57;101298.34;;;25.15;30.95
26436;BME280;15351;52.408;16.826;2023-05-28T11:13:24;101293.02;;;25.25;30.85
26436;BME280;15351;52.408;16.826;2023-05-28T11:15:52;101289.84;;;25.38;31.33
26436;BME280;15351;52.408;16.826;2023-05-28T11:18:18;101287.95;;;25.39;30.60
26436;BME280;15351;52.408;16.826;2023-05-28T11:21:03;101288.77;;;25.39;30.86
26436;BME280;15351;52.408;16.826;2023-05-28T11:23:30;101285.16;;;25.27;29.26
26436;BME280;15351;52.408;16.826;2023-05-28T11:25:56;101279.50;;;25.18;29.67
26436;BME280;15351;52.408;16.826;2023-05-28T11:28:23;101280.77;;;25.15;29.29
26436;BME280;15351;52.408;16.826;2023-05-28T11:30:56;101276.98;;;25.07;28.66
26436;BME280;15351;52.408;16.826;2023-05-28T11:33:28;101276.38;;;25.07;29.74
26436;BME280;15351;52.408;16.826;2023-05-28T11:36:01;101272.69;;;25.11;30.08
26436;BME280;15351;52.408;16.826;2023-05-28T11:38:28;101266.05;;;25.17;30.90
26436;BME280;15351;52.408;16.826;2023-05-28T11:41:14;101267.27;;;25.26;30.74
26436;BME280;15351;52.408;16.826;2023-05-28T11:47:14;101264.88;;;25.16;29.49
26436;BME280;15351;52.408;16.826;2023-05-28T11:49:45;101265.23;;;25.14;29.58
26436;BME280;15351;52.408;16.826;2023-05-28T11:52:18;101256.95;;;25.15;29.81
26436;BME280;15351;52.408;16.826;2023-05-28T11:54:56;101255.61;;;25.02;28.55
26436;BME280;15351;52.408;16.826;2023-05-28T11:57:27;101251.58;;;24.77;28.45
26436;BME280;15351;52.408;16.826;2023-05-28T12:02:54;101251.02;;;24.94;31.65
26436;BME280;15351;52.408;16.826;2023-05-28T12:05:35;101250.83;;;25.02;29.97
26436;BME280;15351;52.408;16.826;2023-05-28T12:08:02;101239.85;;;24.97;29.20
26436;BME280;15351;52.408;16.826;2023-05-28T12:10:30;101243.79;;;25.01;29.98
26436;BME280;15351;52.408;16.826;2023-05-28T12:13:06;101250.42;;;25.01;29.48
26436;BME280;15351;52.408;16.826;2023-05-28T12:15:49;101250.41;;;25.01;29.47
26436;BME280;15351;52.408;16.826;2023-05-28T12:18:28;101243.68;;;24.95;28.58
26436;BME280;15351;52.408;16.826;2023-05-28T12:20:59;101242.56;;;24.86;28.17
26436;BME280;15351;52.408;16.826;2023-05-28T12:24:13;101244.02;;;24.81;28.85
26436;BME280;15351;52.408;16.826;2023-05-28T12:26:43;101240.34;;;24.76;28.28
26436;BME280;15351;52.408;16.826;2023-05-28T12:29:10;101242.48;;;24.72;28.61
26436;BME280;15351;52.408;16.826;2023-05-28T12:31:45;101241.66;;;24.67;28.51
26436;BME280;15351;52.408;16.826;2023-05-28T12:34:14;101238.83;;;24.60;28.27
26436;BME280;15351;52.408;16.826;2023-05-28T12:36:53;101239.21;;;24.53;28.15
26436;BME280;15351;52.408;16.826;2023-05-28T12:39:22;101234.33;;;24.52;27.97
26436;BME280;15351;52.408;16.826;2023-05-28T12:42:02;101227.89;;;24.47;27.95
26436;BME280;15351;52.408;16.826;2023-05-28T12:45:04;101228.79;;;24.58;28.89
26436;BME280;15351;52.408;16.826;2023-05-28T12:47:44;101232.89;;;24.64;29.12
26436;BME280;15351;52.408;16.826;2023-05-28T12:50:29;101228.41;;;24.76;30.40
26436;BME280;15351;52.408;16.826;2023-05-28T12:52:56;101221.31;;;24.78;29.29
26436;BME280;15351;52.408;16.826;2023-05-28T12:55:25;101217.97;;;24.71;28.96
26436;BME280;15351;52.408;16.826;2023-05-28T12:57:57;101213.41;;;24.74;29.12
26436;BME280;15351;52.408;16.826;2023-05-28T13:00:26;101216.95;;;24.74;28.87
26436;BME280;15351;52.408;16.826;2023-05-28T13:03:01;101222.44;;;24.71;29.13
26436;BME280;15351;52.408;16.826;2023-05-28T13:05:46;101216.17;;;24.74;29.54
26436;BME280;15351;52.408;16.826;2023-05-28T13:12:30;101215.77;;;24.79;29.96
26436;BME280;15351;52.408;16.826;2023-05-28T13:14:57;101216.23;;;24.80;29.88
26436;BME280;15351;52.408;16.826;2023-05-28T13:17:28;101209.66;;;24.80;29.33
26436;BME280;15351;52.408;16.826;2023-05-28T13:24:09;101200.19;;;24.63;28.74
26436;BME280;15351;52.408;16.826;2023-05-28T13:27:15;101194.95;;;24.54;28.83
26436;BME280;15351;52.408;16.826;2023-05-28T13:33:27;101180.96;;;24.42;28.76
26436;BME280;15351;52.408;16.826;2023-05-28T13:35:55;101176.36;;;24.43;28.83
26436;BME280;15351;52.408;16.826;2023-05-28T13:38:34;101178.41;;;24.40;28.11
26436;BME280;15351;52.408;16.826;2023-05-28T13:44:45;101177.23;;;24.29;28.88
26436;BME280;15351;52.408;16.826;2023-05-28T13:47:28;101172.44;;;24.32;29.51
26436;BME280;15351;52.408;16.826;2023-05-28T13:50:28;101171.00;;;24.35;29.29
26436;BME280;15351;52.408;16.826;2023-05-28T13:53:10;101167.23;;;24.31;29.03
26436;BME280;15351;52.408;16.826;2023-05-28T13:55:39;101165.39;;;24.30;29.27
26436;BME280;15351;52.408;16.826;2023-05-28T13:58:09;101158.48;;;24.30;29.63
26436;BME280;15351;52.408;16.826;2023-05-28T14:00:38;101158.71;;;24.33;29.30
26436;BME280;15351;52.408;16.826;2023-05-28T14:03:04;101157.42;;;24.35;29.37
26436;BME280;15351;52.408;16.826;2023-05-28T14:05:42;101157.50;;;24.33;28.89
26436;BME280;15351;52.408;16.826;2023-05-28T14:08:13;101151.75;;;24.29;28.92
26436;BME280;15351;52.408;16.826;2023-05-28T14:10:43;101147.77;;;24.27;29.14
26436;BME280;15351;52.408;16.826;2023-05-28T14:13:19;101146.71;;;24.22;28.88
26436;BME280;15351;52.408;16.826;2023-05-28T14:15:48;101149.88;;;24.19;28.89
26436;BME280;15351;52.408;16.826;2023-05-28T14:18:14;101146.39;;;24.16;29.64
26436;BME280;15351;52.408;16.826;2023-05-28T14:20:47;101143.02;;;24.11;29.07
26436;BME280;15351;52.408;16.826;2023-05-28T14:23:57;101141.83;;;24.05;28.85
26436;BME280;15351;52.408;16.826;2023-05-28T14:32:19;101128.60;;;23.86;28.45
26436;BME280;15351;52.408;16.826;2023-05-28T14:35:12;101123.11;;;23.92;28.70
26436;BME280;15351;52.408;16.826;2023-05-28T14:37:50;101110.85;;;23.93;28.75
26436;BME280;15351;52.408;16.826;2023-05-28T14:41:03;101122.73;;;23.94;29.15
26436;BME280;15351;52.408;16.826;2023-05-28T14:44:02;101118.13;;;23.93;29.17
26436;BME280;15351;52.408;16.826;2023-05-28T14:47:46;101115.17;;;23.90;29.27
26436;BME280;15351;52.408;16.826;2023-05-28T14:50:47;101101.98;;;23.79;28.71
26436;BME280;15351;52.408;16.826;2023-05-28T14:54:54;101106.20;;;23.72;28.69
26436;BME280;15351;52.408;16.826;2023-05-28T14:58:53;101108.39;;;23.72;29.10
26436;BME280;15351;52.408;16.826;2023-05-28T15:01:52;101107.66;;;23.74;29.02
26436;BME280;15351;52.408;16.826;2023-05-28T15:05:14;101106.23;;;23.67;28.60
26436;BME280;15351;52.408;16.826;2023-05-28T15:08:33;101104.77;;;23.61;28.75
26436;BME280;15351;52.408;16.826;2023-05-28T15:11:28;101095.23;;;23.59;28.57
26436;BME280;15351;52.408;16.826;2023-05-28T15:15:09;101097.94;;;23.56;28.94
26436;BME280;15351;52.408;16.826;2023-05-28T15:18:27;101102.94;;;23.52;29.38
26436;BME280;15351;52.408;16.826;2023-05-28T15:22:04;101100.27;;;23.47;28.75
26436;BME280;15351;52.408;16.826;2023-05-28T15:28:53;101096.27;;;23.19;28.56
26436;BME280;15351;52.408;16.826;2023-05-28T15:35:45;101090.88;;;23.17;28.53
26436;BME280;15351;52.408;16.826;2023-05-28T15:39:42;101086.67;;;23.14;28.90
26436;BME280;15351;52.408;16.826;2023-05-28T15:43:29;101084.42;;;23.13;28.79
26436;BME280;15351;52.408;16.826;2023-05-28T15:54:43;101079.95;;;22.92;28.87
26436;BME280;15351;52.408;16.826;2023-05-28T16:04:27;101074.14;;;22.71;28.28
26436;BME280;15351;52.408;16.826;2023-05-28T16:07:48;101067.09;;;22.70;28.83
26436;BME280;15351;52.408;16.826;2023-05-28T16:10:28;101071.20;;;22.72;29.25
26436;BME280;15351;52.408;16.826;2023-05-28T16:19:16;101070.64;;;22.72;30.92
26436;BME280;15351;52.408;16.826;2023-05-28T16:22:54;101067.42;;;22.69;30.71
26436;BME280;15351;52.408;16.826;2023-05-28T16:32:03;101068.67;;;22.66;29.83
26436;BME280;15351;52.408;16.826;2023-05-28T16:34:32;101070.21;;;22.61;30.28
26436;BME280;15351;52.408;16.826;2023-05-28T16:37:23;101073.48;;;22.55;30.05